sensor_id;sensor_type;location;lat;lon;timestamp;temperature;humidity
70734;DHT22;58320;48.804;9.252;2022-09-06T00:01:43;19.00;69.60
70734;DHT22;58320;48.804;9.252;2022-09-06T00:04:09;18.90;70.00
70734;DHT22;58320;48.804;9.252;2022-09-06T00:06:34;18.90;70.50
70734;DHT22;58320;48.804;9.252;2022-09-06T00:09:01;18.80;70.70
70734;DHT22;58320;48.804;9.252;2022-09-06T00:11:27;18.70;71.00
70734;DHT22;58320;48.804;9.252;2022-09-06T00:13:53;18.60;71.20
70734;DHT22;58320;48.804;9.252;2022-09-06T00:16:21;18.60;71.90
70734;DHT22;58320;48.804;9.252;2022-09-06T00:18:51;18.50;71.80
70734;DHT22;58320;48.804;9.252;2022-09-06T00:21:23;18.40;71.90
70734;DHT22;58320;48.804;9.252;2022-09-06T00:23:51;18.30;72.30
70734;DHT22;58320;48.804;9.252;2022-09-06T00:26:18;18.30;72.90
70734;DHT22;58320;48.804;9.252;2022-09-06T00:28:46;18.20;73.50
70734;DHT22;58320;48.804;9.252;2022-09-06T00:31:16;18.10;73.90
70734;DHT22;58320;48.804;9.252;2022-09-06T00:33:46;18.00;74.80
70734;DHT22;58320;48.804;9.252;2022-09-06T00:36:12;17.90;75.50
70734;DHT22;58320;48.804;9.252;2022-09-06T00:38:39;17.90;75.30
70734;DHT22;58320;48.804;9.252;2022-09-06T00:41:07;17.80;75.50
70734;DHT22;58320;48.804;9.252;2022-09-06T00:43:33;17.80;75.70
70734;DHT22;58320;48.804;9.252;2022-09-06T00:46:00;17.70;76.50
70734;DHT22;58320;48.804;9.252;2022-09-06T00:48:26;17.70;76.20
70734;DHT22;58320;48.804;9.252;2022-09-06T00:50:55;17.60;76.40
70734;DHT22;58320;48.804;9.252;2022-09-06T00:53:23;17.50;76.50
70734;DHT22;58320;48.804;9.252;2022-09-06T00:55:49;17.50;76.70
70734;DHT22;58320;48.804;9.252;2022-09-06T00:58:16;17.40;76.90
70734;DHT22;58320;48.804;9.252;2022-09-06T01:00:41;17.40;77.20
70734;DHT22;58320;48.804;9.252;2022-09-06T01:03:09;17.40;77.50
70734;DHT22;58320;48.804;9.252;2022-09-06T01:06:05;17.40;77.60
70734;DHT22;58320;48.804;9.252;2022-09-06T01:20:15;17.10;79.40
70734;DHT22;58320;48.804;9.252;2022-09-06T01:28:47;17.10;79.60
70734;DHT22;58320;48.804;9.252;2022-09-06T01:36:49;17.00;79.70
70734;DHT22;58320;48.804;9.252;2022-09-06T01:39:35;17.00;79.70
70734;DHT22;58320;48.804;9.252;2022-09-06T01:42:12;17.00;79.70
70734;DHT22;58320;48.804;9.252;2022-09-06T01:44:44;17.00;79.90
70734;DHT22;58320;48.804;9.252;2022-09-06T01:56:29;17.10;79.80
70734;DHT22;58320;48.804;9.252;2022-09-06T02:02:00;17.10;79.60
70734;DHT22;58320;48.804;9.252;2022-09-06T02:07:16;17.10;79.40
70734;DHT22;58320;48.804;9.252;2022-09-06T02:09:51;17.10;79.30
70734;DHT22;58320;48.804;9.252;2022-09-06T02:12:35;17.20;79.40
70734;DHT22;58320;48.804;9.252;2022-09-06T02:15:31;17.30;79.40
70734;DHT22;58320;48.804;9.252;2022-09-06T02:18:11;17.30;79.30
70734;DHT22;58320;48.804;9.252;2022-09-06T02:20:43;17.40;79.20
70734;DHT22;58320;48.804;9.252;2022-09-06T02:23:14;17.40;78.80
70734;DHT22;58320;48.804;9.252;2022-09-06T02:25:48;17.40;79.20
70734;DHT22;58320;48.804;9.252;2022-09-06T02:28:16;17.40;80.50
70734;DHT22;58320;48.804;9.252;2022-09-06T02:30:50;17.50;80.30
70734;DHT22;58320;48.804;9.252;2022-09-06T02:33:23;17.50;80.10
70734;DHT22;58320;48.804;9.252;2022-09-06T02:35:53;17.60;79.80
70734;DHT22;58320;48.804;9.252;2022-09-06T02:38:24;17.70;79.70
70734;DHT22;58320;48.804;9.252;2022-09-06T02:40:52;17.80;79.30
70734;DHT22;58320;48.804;9.252;2022-09-06T02:43:19;17.80;79.80
70734;DHT22;58320;48.804;9.252;2022-09-06T02:45:46;17.90;79.00
70734;DHT22;58320;48.804;9.252;2022-09-06T02:48:11;18.00;78.40
70734;DHT22;58320;48.804;9.252;2022-09-06T02:50:38;18.10;77.10
70734;DHT22;58320;48.804;9.252;2022-09-06T02:53:07;18.30;76.60
70734;DHT22;58320;48.804;9.252;2022-09-06T02:55:34;18.20;77.60
70734;DHT22;58320;48.804;9.252;2022-09-06T02:58:01;18.00;82.40
70734;DHT22;58320;48.804;9.252;2022-09-06T03:00:27;17.60;85.60
70734;DHT22;58320;48.804;9.252;2022-09-06T03:02:54;17.40;88.40
70734;DHT22;58320;48.804;9.252;2022-09-06T03:05:25;17.20;89.60
70734;DHT22;58320;48.804;9.252;2022-09-06T03:07:52;17.20;91.90
70734;DHT22;58320;48.804;9.252;2022-09-06T03:10:19;17.10;92.90
70734;DHT22;58320;48.804;9.252;2022-09-06T03:12:46;17.10;93.50
70734;DHT22;58320;48.804;9.252;2022-09-06T03:15:13;17.10;94.10
70734;DHT22;58320;48.804;9.252;2022-09-06T03:17:40;17.10;94.30
70734;DHT22;58320;48.804;9.252;2022-09-06T03:20:07;17.10;96.10
70734;DHT22;58320;48.804;9.252;2022-09-06T03:22:37;17.10;97.30
70734;DHT22;58320;48.804;9.252;2022-09-06T03:25:04;17.00;98.00
70734;DHT22;58320;48.804;9.252;2022-09-06T03:27:32;17.00;98.00
70734;DHT22;58320;48.804;9.252;2022-09-06T03:29:57;17.00;98.40
70734;DHT22;58320;48.804;9.252;2022-09-06T03:32:24;17.00;97.90
70734;DHT22;58320;48.804;9.252;2022-09-06T03:34:49;17.00;97.70
70734;DHT22;58320;48.804;9.252;2022-09-06T03:37:15;17.00;98.50
70734;DHT22;58320;48.804;9.252;2022-09-06T03:39:41;17.00;98.10
70734;DHT22;58320;48.804;9.252;2022-09-06T03:42:07;16.90;97.70
70734;DHT22;58320;48.804;9.252;2022-09-06T03:44:33;16.90;97.70
70734;DHT22;58320;48.804;9.252;2022-09-06T03:46:59;16.80;98.20
70734;DHT22;58320;48.804;9.252;2022-09-06T03:49:24;16.80;98.40
70734;DHT22;58320;48.804;9.252;2022-09-06T03:51:51;16.70;98.50
70734;DHT22;58320;48.804;9.252;2022-09-06T03:54:17;16.70;98.80
70734;DHT22;58320;48.804;9.252;2022-09-06T03:56:43;16.70;99.20
70734;DHT22;58320;48.804;9.252;2022-09-06T03:59:09;16.70;99.50
70734;DHT22;58320;48.804;9.252;2022-09-06T04:01:34;16.70;99.80
70734;DHT22;58320;48.804;9.252;2022-09-06T04:04:00;16.70;99.90
70734;DHT22;58320;48.804;9.252;2022-09-06T04:06:27;16.70;99.90
70734;DHT22;58320;48.804;9.252;2022-09-06T04:08:53;16.70;99.90
70734;DHT22;58320;48.804;9.252;2022-09-06T04:11:19;16.70;99.90
70734;DHT22;58320;48.804;9.252;2022-09-06T04:13:45;16.60;99.90
70734;DHT22;58320;48.804;9.252;2022-09-06T04:16:11;16.50;99.90
70734;DHT22;58320;48.804;9.252;2022-09-06T04:18:36;16.50;99.90
70734;DHT22;58320;48.804;9.252;2022-09-06T04:21:02;16.50;99.90
70734;DHT22;58320;48.804;9.252;2022-09-06T04:23:29;16.50;99.90
70734;DHT22;58320;48.804;9.252;2022-09-06T04:25:56;16.50;99.90
70734;DHT22;58320;48.804;9.252;2022-09-06T04:28:24;16.50;99.90
70734;DHT22;58320;48.804;9.252;2022-09-06T04:31:01;16.50;99.90
70734;DHT22;58320;48.804;9.252;2022-09-06T04:33:29;16.50;99.90
70734;DHT22;58320;48.804;9.252;2022-09-06T04:35:57;16.50;99.90
70734;DHT22;58320;48.804;9.252;2022-09-06T04:38:26;16.50;99.90
70734;DHT22;58320;48.804;9.252;2022-09-06T04:40:52;16.50;99.90
70734;DHT22;58320;48.804;9.252;2022-09-06T04:43:20;16.50;99.90
70734;DHT22;58320;48.804;9.252;2022-09-06T04:45:47;16.50;99.90
70734;DHT22;58320;48.804;9.252;2022-09-06T04:48:13;16.50;99.90
70734;DHT22;58320;48.804;9.252;2022-09-06T04:50:39;16.50;99.90
70734;DHT22;58320;48.804;9.252;2022-09-06T04:53:05;16.50;99.90
70734;DHT22;58320;48.804;9.252;2022-09-06T04:55:32;16.50;99.10
70734;DHT22;58320;48.804;9.252;2022-09-06T04:58:00;16.60;96.90
70734;DHT22;58320;48.804;9.252;2022-09-06T05:00:26;16.60;96.50
70734;DHT22;58320;48.804;9.252;2022-09-06T05:02:53;16.70;95.60
70734;DHT22;58320;48.804;9.252;2022-09-06T05:05:19;16.70;96.20
70734;DHT22;58320;48.804;9.252;2022-09-06T05:07:45;16.70;96.30
70734;DHT22;58320;48.804;9.252;2022-09-06T05:10:11;16.70;95.80
70734;DHT22;58320;48.804;9.252;2022-09-06T05:12:36;16.70;95.70
70734;DHT22;58320;48.804;9.252;2022-09-06T05:15:02;16.70;96.00
70734;DHT22;58320;48.804;9.252;2022-09-06T05:17:29;16.70;96.20
70734;DHT22;58320;48.804;9.252;2022-09-06T05:19:55;16.70;96.40
70734;DHT22;58320;48.804;9.252;2022-09-06T05:22:21;16.80;97.00
70734;DHT22;58320;48.804;9.252;2022-09-06T05:24:47;16.80;97.40
70734;DHT22;58320;48.804;9.252;2022-09-06T05:27:12;16.90;97.00
70734;DHT22;58320;48.804;9.252;2022-09-06T05:29:38;16.90;97.10
70734;DHT22;58320;48.804;9.252;2022-09-06T05:32:04;17.00;97.50
70734;DHT22;58320;48.804;9.252;2022-09-06T05:34:30;17.00;97.20
70734;DHT22;58320;48.804;9.252;2022-09-06T05:36:56;17.00;97.00
70734;DHT22;58320;48.804;9.252;2022-09-06T05:39:22;17.00;97.00
70734;DHT22;58320;48.804;9.252;2022-09-06T05:41:48;17.10;96.90
70734;DHT22;58320;48.804;9.252;2022-09-06T05:44:14;17.10;96.60
70734;DHT22;58320;48.804;9.252;2022-09-06T05:46:46;17.10;96.50
70734;DHT22;58320;48.804;9.252;2022-09-06T05:49:12;17.10;96.40
70734;DHT22;58320;48.804;9.252;2022-09-06T05:51:39;17.20;96.30
70734;DHT22;58320;48.804;9.252;2022-09-06T05:54:05;17.20;95.70
70734;DHT22;58320;48.804;9.252;2022-09-06T05:56:32;17.30;95.60
70734;DHT22;58320;48.804;9.252;2022-09-06T05:58:58;17.30;95.10
70734;DHT22;58320;48.804;9.252;2022-09-06T06:01:26;17.30;94.40
70734;DHT22;58320;48.804;9.252;2022-09-06T06:03:59;17.40;94.10
70734;DHT22;58320;48.804;9.252;2022-09-06T06:06:29;17.40;93.70
70734;DHT22;58320;48.804;9.252;2022-09-06T06:08:56;17.30;92.80
70734;DHT22;58320;48.804;9.252;2022-09-06T06:11:22;17.30;92.90
70734;DHT22;58320;48.804;9.252;2022-09-06T06:13:50;17.30;93.10
70734;DHT22;58320;48.804;9.252;2022-09-06T06:16:18;17.20;92.90
70734;DHT22;58320;48.804;9.252;2022-09-06T06:18:45;17.20;92.90
70734;DHT22;58320;48.804;9.252;2022-09-06T06:21:16;17.30;92.60
70734;DHT22;58320;48.804;9.252;2022-09-06T06:23:53;17.40;92.10
70734;DHT22;58320;48.804;9.252;2022-09-06T06:26:20;17.40;91.30
70734;DHT22;58320;48.804;9.252;2022-09-06T06:28:47;17.50;91.10
70734;DHT22;58320;48.804;9.252;2022-09-06T06:31:13;17.60;90.10
70734;DHT22;58320;48.804;9.252;2022-09-06T06:33:40;17.70;88.80
70734;DHT22;58320;48.804;9.252;2022-09-06T06:36:17;17.70;87.20
70734;DHT22;58320;48.804;9.252;2022-09-06T06:38:47;17.80;86.50
70734;DHT22;58320;48.804;9.252;2022-09-06T06:41:15;17.90;86.70
70734;DHT22;58320;48.804;9.252;2022-09-06T06:43:42;17.90;87.20
70734;DHT22;58320;48.804;9.252;2022-09-06T06:48:40;18.10;87.10
70734;DHT22;58320;48.804;9.252;2022-09-06T06:51:17;18.20;86.00
70734;DHT22;58320;48.804;9.252;2022-09-06T06:53:47;18.30;85.00
70734;DHT22;58320;48.804;9.252;2022-09-06T06:56:17;18.50;85.00
70734;DHT22;58320;48.804;9.252;2022-09-06T06:58:45;18.70;84.60
70734;DHT22;58320;48.804;9.252;2022-09-06T07:01:17;18.90;83.60
70734;DHT22;58320;48.804;9.252;2022-09-06T07:03:45;19.20;82.10
70734;DHT22;58320;48.804;9.252;2022-09-06T07:06:14;19.30;80.50
70734;DHT22;58320;48.804;9.252;2022-09-06T07:08:41;19.30;79.30
70734;DHT22;58320;48.804;9.252;2022-09-06T07:11:09;19.30;79.50
70734;DHT22;58320;48.804;9.252;2022-09-06T07:13:36;19.40;78.90
70734;DHT22;58320;48.804;9.252;2022-09-06T07:16:20;19.40;77.90
70734;DHT22;58320;48.804;9.252;2022-09-06T07:18:51;19.50;77.70
70734;DHT22;58320;48.804;9.252;2022-09-06T07:21:21;19.60;77.90
70734;DHT22;58320;48.804;9.252;2022-09-06T07:23:51;19.70;77.60
70734;DHT22;58320;48.804;9.252;2022-09-06T07:26:20;19.60;77.40
70734;DHT22;58320;48.804;9.252;2022-09-06T07:28:51;19.60;77.50
70734;DHT22;58320;48.804;9.252;2022-09-06T07:31:20;19.60;78.20
70734;DHT22;58320;48.804;9.252;2022-09-06T07:33:47;19.80;76.90
70734;DHT22;58320;48.804;9.252;2022-09-06T07:36:12;19.70;77.00
70734;DHT22;58320;48.804;9.252;2022-09-06T07:38:38;19.70;76.70
70734;DHT22;58320;48.804;9.252;2022-09-06T07:41:07;19.70;78.00
70734;DHT22;58320;48.804;9.252;2022-09-06T07:43:34;19.80;77.10
70734;DHT22;58320;48.804;9.252;2022-09-06T07:46:02;19.90;76.60
70734;DHT22;58320;48.804;9.252;2022-09-06T07:48:31;20.10;77.10
70734;DHT22;58320;48.804;9.252;2022-09-06T07:51:08;20.40;76.30
70734;DHT22;58320;48.804;9.252;2022-09-06T07:53:37;20.60;75.00
70734;DHT22;58320;48.804;9.252;2022-09-06T07:56:06;20.80;72.40
70734;DHT22;58320;48.804;9.252;2022-09-06T07:58:34;20.80;73.20
70734;DHT22;58320;48.804;9.252;2022-09-06T08:04:04;21.20;71.80
70734;DHT22;58320;48.804;9.252;2022-09-06T08:06:40;21.40;71.40
70734;DHT22;58320;48.804;9.252;2022-09-06T08:09:13;21.80;70.50
70734;DHT22;58320;48.804;9.252;2022-09-06T08:11:39;22.10;67.90
70734;DHT22;58320;48.804;9.252;2022-09-06T08:14:06;22.30;68.60
70734;DHT22;58320;48.804;9.252;2022-09-06T08:16:34;22.40;66.50
70734;DHT22;58320;48.804;9.252;2022-09-06T08:19:04;22.60;66.50
70734;DHT22;58320;48.804;9.252;2022-09-06T08:21:33;22.80;67.00
70734;DHT22;58320;48.804;9.252;2022-09-06T08:24:01;22.70;65.30
70734;DHT22;58320;48.804;9.252;2022-09-06T08:26:31;22.80;65.20
70734;DHT22;58320;48.804;9.252;2022-09-06T08:29:03;22.80;65.20
70734;DHT22;58320;48.804;9.252;2022-09-06T08:31:31;22.90;64.80
70734;DHT22;58320;48.804;9.252;2022-09-06T08:33:59;23.00;64.80
70734;DHT22;58320;48.804;9.252;2022-09-06T08:36:25;23.20;64.10
70734;DHT22;58320;48.804;9.252;2022-09-06T08:38:55;23.30;64.20
70734;DHT22;58320;48.804;9.252;2022-09-06T08:41:33;23.40;63.30
70734;DHT22;58320;48.804;9.252;2022-09-06T08:44:11;23.30;64.30
70734;DHT22;58320;48.804;9.252;2022-09-06T08:47:06;23.40;63.40
70734;DHT22;58320;48.804;9.252;2022-09-06T08:50:06;23.50;64.10
70734;DHT22;58320;48.804;9.252;2022-09-06T08:55:32;23.50;63.90
70734;DHT22;58320;48.804;9.252;2022-09-06T09:02:10;23.60;62.60
70734;DHT22;58320;48.804;9.252;2022-09-06T09:04:49;24.00;62.80
70734;DHT22;58320;48.804;9.252;2022-09-06T09:10:16;24.20;60.70
70734;DHT22;58320;48.804;9.252;2022-09-06T09:12:47;24.40;60.40
70734;DHT22;58320;48.804;9.252;2022-09-06T09:15:15;24.80;59.60
70734;DHT22;58320;48.804;9.252;2022-09-06T09:17:42;25.10;58.40
70734;DHT22;58320;48.804;9.252;2022-09-06T09:20:09;25.20;58.40
70734;DHT22;58320;48.804;9.252;2022-09-06T09:22:36;25.40;58.30
70734;DHT22;58320;48.804;9.252;2022-09-06T09:25:04;25.50;56.60
70734;DHT22;58320;48.804;9.252;2022-09-06T09:27:32;25.50;57.00
70734;DHT22;58320;48.804;9.252;2022-09-06T09:30:00;25.90;57.40
70734;DHT22;58320;48.804;9.252;2022-09-06T09:35:18;27.00;53.20
70734;DHT22;58320;48.804;9.252;2022-09-06T09:37:46;27.00;53.70
70734;DHT22;58320;48.804;9.252;2022-09-06T09:40:30;27.10;53.80
70734;DHT22;58320;48.804;9.252;2022-09-06T09:46:16;27.00;54.00
70734;DHT22;58320;48.804;9.252;2022-09-06T09:51:43;26.60;53.70
70734;DHT22;58320;48.804;9.252;2022-09-06T09:54:13;26.80;53.90
70734;DHT22;58320;48.804;9.252;2022-09-06T09:56:46;27.10;53.40
70734;DHT22;58320;48.804;9.252;2022-09-06T09:59:23;27.50;52.60
70734;DHT22;58320;48.804;9.252;2022-09-06T10:02:15;27.80;51.70
70734;DHT22;58320;48.804;9.252;2022-09-06T10:04:44;28.10;51.10
70734;DHT22;58320;48.804;9.252;2022-09-06T10:07:16;28.30;49.80
70734;DHT22;58320;48.804;9.252;2022-09-06T10:10:05;28.50;50.30
70734;DHT22;58320;48.804;9.252;2022-09-06T10:12:40;28.80;48.70
70734;DHT22;58320;48.804;9.252;2022-09-06T10:15:11;29.00;46.70
70734;DHT22;58320;48.804;9.252;2022-09-06T10:18:00;29.00;47.80
70734;DHT22;58320;48.804;9.252;2022-09-06T10:25:51;29.30;47.40
70734;DHT22;58320;48.804;9.252;2022-09-06T10:28:37;29.50;46.60
70734;DHT22;58320;48.804;9.252;2022-09-06T10:40:05;30.10;44.00
70734;DHT22;58320;48.804;9.252;2022-09-06T10:42:45;30.30;44.20
70734;DHT22;58320;48.804;9.252;2022-09-06T10:45:55;30.50;44.60
70734;DHT22;58320;48.804;9.252;2022-09-06T10:48:44;30.60;44.70
70734;DHT22;58320;48.804;9.252;2022-09-06T10:51:35;30.60;44.80
70734;DHT22;58320;48.804;9.252;2022-09-06T10:54:22;30.40;43.40
70734;DHT22;58320;48.804;9.252;2022-09-06T10:57:07;30.60;43.10
70734;DHT22;58320;48.804;9.252;2022-09-06T10:59:50;30.70;43.00
70734;DHT22;58320;48.804;9.252;2022-09-06T11:02:43;30.60;42.70
70734;DHT22;58320;48.804;9.252;2022-09-06T11:05:16;30.40;44.30
70734;DHT22;58320;48.804;9.252;2022-09-06T11:07:55;30.20;45.00
70734;DHT22;58320;48.804;9.252;2022-09-06T11:13:02;29.70;46.10
70734;DHT22;58320;48.804;9.252;2022-09-06T11:27:37;30.10;44.70
70734;DHT22;58320;48.804;9.252;2022-09-06T11:30:11;29.80;44.90
70734;DHT22;58320;48.804;9.252;2022-09-06T11:32:45;30.20;45.50
70734;DHT22;58320;48.804;9.252;2022-09-06T11:35:29;30.80;46.20
70734;DHT22;58320;48.804;9.252;2022-09-06T11:38:02;30.60;45.30
70734;DHT22;58320;48.804;9.252;2022-09-06T11:40:47;30.10;46.10
70734;DHT22;58320;48.804;9.252;2022-09-06T11:43:51;29.90;46.70
70734;DHT22;58320;48.804;9.252;2022-09-06T11:51:35;31.20;45.20
70734;DHT22;58320;48.804;9.252;2022-09-06T11:54:24;32.40;42.20
70734;DHT22;58320;48.804;9.252;2022-09-06T11:57:01;32.40;42.00
70734;DHT22;58320;48.804;9.252;2022-09-06T12:02:39;32.50;42.10
70734;DHT22;58320;48.804;9.252;2022-09-06T12:05:29;32.30;42.40
70734;DHT22;58320;48.804;9.252;2022-09-06T12:11:03;31.90;42.20
70734;DHT22;58320;48.804;9.252;2022-09-06T12:13:58;31.50;43.20
70734;DHT22;58320;48.804;9.252;2022-09-06T12:19:50;31.40;43.80
70734;DHT22;58320;48.804;9.252;2022-09-06T12:27:35;31.30;43.50
70734;DHT22;58320;48.804;9.252;2022-09-06T12:30:11;30.40;45.30
70734;DHT22;58320;48.804;9.252;2022-09-06T12:32:47;30.60;45.10
70734;DHT22;58320;48.804;9.252;2022-09-06T12:35:22;31.00;44.50
70734;DHT22;58320;48.804;9.252;2022-09-06T12:37:53;30.80;44.50
70734;DHT22;58320;48.804;9.252;2022-09-06T12:40:20;30.40;45.70
70734;DHT22;58320;48.804;9.252;2022-09-06T12:42:48;29.90;47.30
70734;DHT22;58320;48.804;9.252;2022-09-06T12:45:19;29.30;49.10
70734;DHT22;58320;48.804;9.252;2022-09-06T12:47:47;28.60;50.40
70734;DHT22;58320;48.804;9.252;2022-09-06T12:50:24;27.60;55.30
70734;DHT22;58320;48.804;9.252;2022-09-06T12:55:20;25.10;65.30
70734;DHT22;58320;48.804;9.252;2022-09-06T12:57:55;24.30;70.20
70734;DHT22;58320;48.804;9.252;2022-09-06T13:00:23;23.80;72.90
70734;DHT22;58320;48.804;9.252;2022-09-06T13:05:28;23.40;76.50
70734;DHT22;58320;48.804;9.252;2022-09-06T13:07:59;23.30;77.00
70734;DHT22;58320;48.804;9.252;2022-09-06T13:10:28;23.30;77.20
70734;DHT22;58320;48.804;9.252;2022-09-06T13:12:56;23.20;76.20
70734;DHT22;58320;48.804;9.252;2022-09-06T13:15:25;23.10;76.00
70734;DHT22;58320;48.804;9.252;2022-09-06T13:17:54;23.10;76.20
70734;DHT22;58320;48.804;9.252;2022-09-06T13:21:09;23.10;76.10
70734;DHT22;58320;48.804;9.252;2022-09-06T13:23:48;23.30;77.40
70734;DHT22;58320;48.804;9.252;2022-09-06T13:26:37;23.40;76.40
70734;DHT22;58320;48.804;9.252;2022-09-06T13:29:32;23.60;76.00
70734;DHT22;58320;48.804;9.252;2022-09-06T13:32:00;23.80;76.00
70734;DHT22;58320;48.804;9.252;2022-09-06T13:34:31;24.00;77.50
70734;DHT22;58320;48.804;9.252;2022-09-06T13:37:04;24.30;78.80
70734;DHT22;58320;48.804;9.252;2022-09-06T13:39:40;24.50;79.40
70734;DHT22;58320;48.804;9.252;2022-09-06T13:42:30;24.60;78.00
70734;DHT22;58320;48.804;9.252;2022-09-06T13:45:08;24.70;78.10
70734;DHT22;58320;48.804;9.252;2022-09-06T13:47:41;24.70;78.30
70734;DHT22;58320;48.804;9.252;2022-09-06T13:50:07;24.70;79.20
70734;DHT22;58320;48.804;9.252;2022-09-06T13:52:33;24.70;80.30
70734;DHT22;58320;48.804;9.252;2022-09-06T13:54:59;24.60;78.90
70734;DHT22;58320;48.804;9.252;2022-09-06T13:57:25;24.50;78.60
70734;DHT22;58320;48.804;9.252;2022-09-06T13:59:50;24.40;79.20
70734;DHT22;58320;48.804;9.252;2022-09-06T14:02:16;24.40;79.00
70734;DHT22;58320;48.804;9.252;2022-09-06T14:04:44;24.40;79.10
70734;DHT22;58320;48.804;9.252;2022-09-06T14:07:10;24.40;78.10
70734;DHT22;58320;48.804;9.252;2022-09-06T14:09:36;24.40;78.10
70734;DHT22;58320;48.804;9.252;2022-09-06T14:12:03;24.40;77.90
70734;DHT22;58320;48.804;9.252;2022-09-06T14:14:31;24.50;78.20
70734;DHT22;58320;48.804;9.252;2022-09-06T14:16:58;24.50;78.30
70734;DHT22;58320;48.804;9.252;2022-09-06T14:19:24;24.50;78.30
70734;DHT22;58320;48.804;9.252;2022-09-06T14:21:50;24.50;77.60
70734;DHT22;58320;48.804;9.252;2022-09-06T14:24:16;24.50;76.60
70734;DHT22;58320;48.804;9.252;2022-09-06T14:26:42;24.50;77.30
70734;DHT22;58320;48.804;9.252;2022-09-06T14:29:07;24.50;77.90
70734;DHT22;58320;48.804;9.252;2022-09-06T14:31:33;24.50;77.90
70734;DHT22;58320;48.804;9.252;2022-09-06T14:34:00;24.40;77.80
70734;DHT22;58320;48.804;9.252;2022-09-06T14:36:28;24.30;77.70
70734;DHT22;58320;48.804;9.252;2022-09-06T14:38:57;24.20;77.90
70734;DHT22;58320;48.804;9.252;2022-09-06T14:41:24;24.10;77.40
70734;DHT22;58320;48.804;9.252;2022-09-06T14:43:52;23.90;77.20
70734;DHT22;58320;48.804;9.252;2022-09-06T14:46:22;23.80;77.70
70734;DHT22;58320;48.804;9.252;2022-09-06T14:48:54;23.70;78.00
70734;DHT22;58320;48.804;9.252;2022-09-06T14:51:24;23.60;78.00
70734;DHT22;58320;48.804;9.252;2022-09-06T14:53:53;23.60;79.10
70734;DHT22;58320;48.804;9.252;2022-09-06T14:56:21;23.60;79.40
70734;DHT22;58320;48.804;9.252;2022-09-06T14:58:48;23.60;79.20
70734;DHT22;58320;48.804;9.252;2022-09-06T15:01:19;23.50;79.70
70734;DHT22;58320;48.804;9.252;2022-09-06T15:03:52;23.50;80.40
70734;DHT22;58320;48.804;9.252;2022-09-06T15:06:21;23.40;78.40
70734;DHT22;58320;48.804;9.252;2022-09-06T15:08:48;23.40;78.50
70734;DHT22;58320;48.804;9.252;2022-09-06T15:11:29;23.30;79.70
70734;DHT22;58320;48.804;9.252;2022-09-06T15:14:02;23.30;79.10
70734;DHT22;58320;48.804;9.252;2022-09-06T15:16:29;23.20;78.10
70734;DHT22;58320;48.804;9.252;2022-09-06T15:18:57;23.30;77.70
70734;DHT22;58320;48.804;9.252;2022-09-06T15:21:24;23.40;78.60
70734;DHT22;58320;48.804;9.252;2022-09-06T15:23:53;23.50;78.50
70734;DHT22;58320;48.804;9.252;2022-09-06T15:26:19;23.60;79.80
70734;DHT22;58320;48.804;9.252;2022-09-06T15:28:46;23.80;79.00
70734;DHT22;58320;48.804;9.252;2022-09-06T15:31:12;24.00;77.20
70734;DHT22;58320;48.804;9.252;2022-09-06T15:33:39;24.60;76.20
70734;DHT22;58320;48.804;9.252;2022-09-06T15:36:07;25.60;75.50
70734;DHT22;58320;48.804;9.252;2022-09-06T15:38:36;27.10;69.40
70734;DHT22;58320;48.804;9.252;2022-09-06T15:41:05;28.60;63.50
70734;DHT22;58320;48.804;9.252;2022-09-06T15:43:33;30.00;58.00
70734;DHT22;58320;48.804;9.252;2022-09-06T15:46:00;30.90;53.60
70734;DHT22;58320;48.804;9.252;2022-09-06T15:48:26;31.30;49.90
70734;DHT22;58320;48.804;9.252;2022-09-06T15:50:52;31.50;49.90
70734;DHT22;58320;48.804;9.252;2022-09-06T15:53:19;31.10;47.10
70734;DHT22;58320;48.804;9.252;2022-09-06T15:55:44;30.40;49.00
70734;DHT22;58320;48.804;9.252;2022-09-06T15:58:24;29.70;51.10
70734;DHT22;58320;48.804;9.252;2022-09-06T16:01:07;29.00;52.70
70734;DHT22;58320;48.804;9.252;2022-09-06T16:04:03;28.40;54.50
70734;DHT22;58320;48.804;9.252;2022-09-06T16:06:38;27.80;56.70
70734;DHT22;58320;48.804;9.252;2022-09-06T16:09:12;26.90;59.50
70734;DHT22;58320;48.804;9.252;2022-09-06T16:11:39;26.30;61.20
70734;DHT22;58320;48.804;9.252;2022-09-06T16:14:08;25.90;61.10
70734;DHT22;58320;48.804;9.252;2022-09-06T16:16:35;25.60;62.60
70734;DHT22;58320;48.804;9.252;2022-09-06T16:19:02;25.50;63.00
70734;DHT22;58320;48.804;9.252;2022-09-06T16:21:30;25.70;64.00
70734;DHT22;58320;48.804;9.252;2022-09-06T16:24:05;26.90;59.10
70734;DHT22;58320;48.804;9.252;2022-09-06T16:26:35;28.20;55.60
70734;DHT22;58320;48.804;9.252;2022-09-06T16:29:04;29.10;51.40
70734;DHT22;58320;48.804;9.252;2022-09-06T16:31:34;29.70;49.90
70734;DHT22;58320;48.804;9.252;2022-09-06T16:34:00;29.80;49.70
70734;DHT22;58320;48.804;9.252;2022-09-06T16:36:26;29.40;50.50
70734;DHT22;58320;48.804;9.252;2022-09-06T16:38:53;29.10;50.60
70734;DHT22;58320;48.804;9.252;2022-09-06T16:41:23;28.50;51.90
70734;DHT22;58320;48.804;9.252;2022-09-06T16:43:51;28.00;53.40
70734;DHT22;58320;48.804;9.252;2022-09-06T16:46:19;27.80;54.40
70734;DHT22;58320;48.804;9.252;2022-09-06T16:48:54;27.60;54.20
70734;DHT22;58320;48.804;9.252;2022-09-06T16:51:23;27.50;54.40
70734;DHT22;58320;48.804;9.252;2022-09-06T16:53:50;27.40;54.60
70734;DHT22;58320;48.804;9.252;2022-09-06T16:56:18;27.40;54.20
70734;DHT22;58320;48.804;9.252;2022-09-06T16:58:53;27.30;54.60
70734;DHT22;58320;48.804;9.252;2022-09-06T17:01:22;27.10;54.70
70734;DHT22;58320;48.804;9.252;2022-09-06T17:03:49;26.80;55.20
70734;DHT22;58320;48.804;9.252;2022-09-06T17:06:15;26.50;55.10
70734;DHT22;58320;48.804;9.252;2022-09-06T17:08:42;26.30;55.90
70734;DHT22;58320;48.804;9.252;2022-09-06T17:11:11;26.10;56.50
70734;DHT22;58320;48.804;9.252;2022-09-06T17:13:43;25.80;57.30
70734;DHT22;58320;48.804;9.252;2022-09-06T17:16:10;25.60;58.20
70734;DHT22;58320;48.804;9.252;2022-09-06T17:18:55;25.40;58.20
70734;DHT22;58320;48.804;9.252;2022-09-06T17:21:22;25.20;57.80
70734;DHT22;58320;48.804;9.252;2022-09-06T17:23:49;25.10;58.20
70734;DHT22;58320;48.804;9.252;2022-09-06T17:26:20;24.80;58.20
70734;DHT22;58320;48.804;9.252;2022-09-06T17:28:48;24.70;59.00
70734;DHT22;58320;48.804;9.252;2022-09-06T17:31:15;24.50;59.30
70734;DHT22;58320;48.804;9.252;2022-09-06T17:33:44;24.30;60.30
70734;DHT22;58320;48.804;9.252;2022-09-06T17:36:16;24.00;56.20
70734;DHT22;58320;48.804;9.252;2022-09-06T17:38:45;23.80;56.10
70734;DHT22;58320;48.804;9.252;2022-09-06T17:41:24;23.70;52.80
70734;DHT22;58320;48.804;9.252;2022-09-06T17:43:52;23.50;52.20
70734;DHT22;58320;48.804;9.252;2022-09-06T17:46:20;23.40;54.30
70734;DHT22;58320;48.804;9.252;2022-09-06T17:48:47;23.30;55.60